Time;durP1;ratioP1;P1;durP2;ratioP2;P2;SDS_P1;SDS_P2;PMS_P1;PMS_P2;Temp;Humidity;BMP_temperature;BMP_pressure;BME280_temperature;BME280_humidity;BME280_pressure;Samples;Min_cycle;Max_cycle;Signal;HPM_P1;HPM_P2
2022/02/11 00:01:39;;;;;;;4.95;3.45;;;7.50;99.90;;;;;;4975418;28;20175;-70
2022/02/11 00:04:24;;;;;;;8.18;4.63;;;7.50;99.90;;;;;;4975084;28;20259;-72
2022/02/11 00:07:06;;;;;;;4.63;3.40;;;7.40;99.90;;;;;;4975275;28;20232;-71
2022/02/11 00:09:32;;;;;;;4.95;4.00;;;7.40;99.90;;;;;;4973352;28;20203;-71
2022/02/11 00:11:58;;;;;;;4.00;3.27;;;7.40;99.90;;;;;;4975113;28;20168;-71
2022/02/11 00:14:25;;;;;;;4.33;3.93;;;7.40;99.90;;;;;;4975120;28;20516;-73
2022/02/11 00:16:50;;;;;;;4.38;3.97;;;7.40;99.90;;;;;;4974918;28;20199;-73
2022/02/11 00:19:16;;;;;;;4.00;3.67;;;7.40;99.90;;;;;;4973494;28;20192;-71
2022/02/11 00:21:42;;;;;;;4.80;3.40;;;7.40;99.90;;;;;;4990000;28;20277;-72
2022/02/11 00:24:08;;;;;;;3.23;2.73;;;7.40;99.90;;;;;;4974993;28;20175;-72
2022/02/11 00:26:37;;;;;;;3.57;3.23;;;7.40;99.90;;;;;;4974955;28;20720;-73
2022/02/11 00:32:04;;;;;;;5.70;3.70;;;7.50;99.90;;;;;;4974790;28;20206;-73
2022/02/11 00:34:44;;;;;;;4.55;3.83;;;7.50;99.90;;;;;;4974754;28;20260;-70
2022/02/11 00:37:15;;;;;;;4.32;3.95;;;7.50;99.90;;;;;;4974638;28;20168;-73
2022/02/11 01:04:06;;;;;;;4.57;3.22;;;7.40;99.90;;;;;;5981018;23;20233;-72
2022/02/11 01:06:32;;;;;;;4.68;3.65;;;7.40;99.90;;;;;;5016046;28;20210;-72
2022/02/11 01:08:58;;;;;;;2.43;2.20;;;7.40;99.90;;;;;;5012294;28;20193;-71
2022/02/11 01:14:11;;;;;;;3.40;2.70;;;7.30;99.90;;;;;;5008940;28;20442;-73
2022/02/11 01:16:51;;;;;;;4.05;3.65;;;7.30;99.90;;;;;;5013177;28;20655;-71
2022/02/11 01:19:27;;;;;;;4.32;3.22;;;7.30;99.90;;;;;;5013463;28;20184;-72
2022/02/11 01:22:07;;;;;;;5.50;2.75;;;7.20;99.90;;;;;;5013425;28;20223;-70
2022/02/11 01:33:11;;;;;;;2.90;2.60;;;7.20;99.90;;;;;;5013232;28;20307;-70
2022/02/11 01:35:22;;;;;;;3.10;2.28;;;7.20;99.90;;;;;;5011327;28;20562;-70
2022/02/11 01:37:56;;;;;;;7.22;3.60;;;7.20;99.90;;;;;;5013206;28;20224;-73
2022/02/11 01:41:24;;;;;;;3.92;3.00;;;7.20;99.90;;;;;;5013118;28;20575;-70
2022/02/11 01:54:07;;;;;;;2.00;1.90;;;7.30;99.90;;;;;;5012618;28;20574;-72
2022/02/11 01:56:43;;;;;;;3.20;2.42;;;7.30;99.90;;;;;;5012836;28;20166;-70
2022/02/11 02:02:31;;;;;;;2.10;1.63;;;7.30;99.90;;;;;;5013088;28;20170;-73
2022/02/11 02:26:31;;;;;;;2.50;2.30;;;7.10;99.90;;;;;;4994665;28;20207;-72
2022/02/11 02:59:02;;;;;;;11.18;2.55;;;6.70;99.90;;;;;;4991749;28;20182;-72
2022/02/11 03:31:40;;;;;;;3.45;2.50;;;6.20;99.90;;;;;;4995152;28;20215;-72
2022/02/11 04:23:06;;;;;;;0.60;0.60;;;4.00;99.90;;;;;;5014471;28;20225;-72
2022/02/11 04:53:32;;;;;;;1.40;1.40;;;3.60;99.90;;;;;;5013785;28;20691;-71
2022/02/11 04:55:37;;;;;;;2.08;1.77;;;3.60;99.90;;;;;;5013477;28;20197;-70
2022/02/11 05:00:48;;;;;;;1.50;1.40;;;3.50;99.90;;;;;;5013828;28;20186;-72
2022/02/11 05:03:14;;;;;;;3.30;2.60;;;3.50;99.90;;;;;;5013400;28;20210;-72
2022/02/11 05:05:49;;;;;;;2.10;2.00;;;3.50;99.90;;;;;;5013284;28;20202;-73
2022/02/11 05:08:35;;;;;;;2.58;2.22;;;3.50;99.90;;;;;;5013542;28;20586;-70
2022/02/11 05:11:02;;;;;;;4.25;2.70;;;3.40;99.90;;;;;;5013509;28;20181;-70
2022/02/11 05:13:28;;;;;;;1.75;1.35;;;3.40;99.90;;;;;;5013102;28;20166;-72
2022/02/11 05:15:54;;;;;;;3.38;1.83;;;3.40;99.90;;;;;;5013243;28;20205;-70
2022/02/11 05:18:21;;;;;;;2.67;2.47;;;3.40;99.90;;;;;;5013557;28;20170;-72
2022/02/11 05:20:46;;;;;;;1.83;1.73;;;3.40;99.90;;;;;;5013545;28;20584;-73
2022/02/11 05:23:14;;;;;;;2.43;2.03;;;3.40;99.90;;;;;;5012886;28;20202;-70
2022/02/11 05:25:42;;;;;;;2.65;2.35;;;3.40;99.90;;;;;;5011968;28;20186;-72
2022/02/11 05:28:09;;;;;;;2.53;2.33;;;3.40;99.90;;;;;;5013146;28;20182;-71
2022/02/11 05:30:38;;;;;;;3.13;2.90;;;3.50;99.90;;;;;;5012149;28;20262;-71
2022/02/11 05:33:05;;;;;;;4.32;2.70;;;3.50;99.90;;;;;;5012927;28;20171;-72
2022/02/11 05:35:32;;;;;;;1.33;1.30;;;3.40;99.90;;;;;;5013090;28;20191;-71
2022/02/11 05:37:57;;;;;;;3.13;2.08;;;3.40;99.90;;;;;;5013185;28;20540;-71
2022/02/11 05:40:23;;;;;;;4.50;2.67;;;3.40;99.90;;;;;;5013350;28;20174;-72
2022/02/11 05:42:49;;;;;;;5.20;4.03;;;3.40;99.90;;;;;;5012867;28;20178;-71
2022/02/11 05:45:15;;;;;;;2.63;2.53;;;3.30;99.90;;;;;;5015742;28;20455;-72
2022/02/11 05:47:41;;;;;;;2.47;1.93;;;3.30;99.90;;;;;;5017072;28;20213;-71
2022/02/11 05:50:07;;;;;;;2.47;2.27;;;3.30;99.90;;;;;;5015555;28;20317;-72
2022/02/11 05:52:33;;;;;;;5.13;3.00;;;3.30;99.90;;;;;;5016860;28;20166;-71
2022/02/11 05:55:00;;;;;;;4.57;2.97;;;3.30;99.90;;;;;;5016606;28;20425;-72
2022/02/11 05:57:26;;;;;;;3.90;1.75;;;3.30;99.90;;;;;;5016882;28;20262;-72
2022/02/11 05:59:54;;;;;;;2.28;2.00;;;3.30;99.90;;;;;;5016767;28;20175;-70
2022/02/11 06:02:20;;;;;;;2.40;2.20;;;3.40;99.90;;;;;;5016660;28;20254;-71
2022/02/11 06:04:46;;;;;;;3.65;2.28;;;3.40;99.90;;;;;;5016608;28;20278;-73
2022/02/11 06:07:11;;;;;;;2.53;2.28;;;3.40;99.90;;;;;;5015018;28;20249;-71
2022/02/11 06:09:37;;;;;;;3.03;2.87;;;3.50;99.90;;;;;;5015637;28;20174;-73
2022/02/11 06:12:03;;;;;;;2.70;2.50;;;3.40;99.90;;;;;;5016296;28;20217;-71
2022/02/11 06:14:29;;;;;;;2.58;2.40;;;3.40;99.90;;;;;;5015917;28;20552;-72
2022/02/11 06:16:55;;;;;;;2.17;1.83;;;3.40;99.90;;;;;;5015822;28;20229;-72
2022/02/11 06:19:20;;;;;;;2.67;2.47;;;3.40;99.90;;;;;;5016424;28;20530;-70
2022/02/11 06:21:46;;;;;;;4.00;2.43;;;3.40;99.90;;;;;;5016234;28;20182;-70
2022/02/11 06:24:13;;;;;;;1.87;1.70;;;3.40;99.90;;;;;;5015650;28;20190;-73
2022/02/11 06:26:40;;;;;;;2.17;1.92;;;3.40;99.90;;;;;;5015826;28;20687;-72
2022/02/11 06:29:06;;;;;;;1.70;1.60;;;3.40;99.90;;;;;;5015321;28;20170;-71
2022/02/11 06:31:31;;;;;;;2.13;2.00;;;3.40;99.90;;;;;;5015193;28;20177;-73
2022/02/11 06:33:57;;;;;;;4.23;2.20;;;3.50;99.90;;;;;;5015608;28;20269;-72
2022/02/11 06:36:23;;;;;;;3.30;2.10;;;3.50;99.90;;;;;;5016043;28;20174;-73
2022/02/11 06:38:48;;;;;;;2.03;1.93;;;3.50;99.90;;;;;;5014753;28;20202;-71
2022/02/11 06:41:14;;;;;;;3.90;3.57;;;3.50;99.90;;;;;;5013881;28;20640;-71
2022/02/11 06:43:40;;;;;;;2.23;2.13;;;3.40;99.90;;;;;;5013982;28;20545;-72
2022/02/11 06:46:05;;;;;;;1.43;1.17;;;3.30;99.90;;;;;;5015355;28;20713;-72
2022/02/11 06:48:31;;;;;;;1.50;1.40;;;3.30;99.90;;;;;;5015839;28;20249;-73
2022/02/11 06:50:58;;;;;;;2.97;2.20;;;3.30;99.90;;;;;;5015777;28;20170;-71
2022/02/11 06:53:24;;;;;;;1.98;1.88;;;3.20;99.90;;;;;;5015232;28;20174;-71
2022/02/11 06:55:50;;;;;;;4.17;2.63;;;3.20;99.90;;;;;;5013643;28;20191;-71
2022/02/11 06:58:16;;;;;;;1.90;1.47;;;3.20;99.90;;;;;;5015248;28;20771;-70
2022/02/11 07:00:46;;;;;;;5.10;1.98;;;3.10;99.90;;;;;;5015323;28;20696;-74
2022/02/11 07:03:12;;;;;;;4.78;2.22;;;3.20;99.90;;;;;;5014697;28;20187;-74
2022/02/11 07:05:39;;;;;;;3.58;2.20;;;3.10;99.90;;;;;;5014853;28;20206;-74
2022/02/11 07:08:05;;;;;;;4.50;3.00;;;3.00;99.90;;;;;;5004827;28;20202;-75
2022/02/11 07:10:31;;;;;;;3.92;2.60;;;3.00;99.90;;;;;;5015005;28;20512;-74
2022/02/11 07:12:58;;;;;;;4.47;2.20;;;2.90;99.90;;;;;;5015051;28;20261;-73
2022/02/11 07:15:23;;;;;;;2.20;2.00;;;3.00;99.90;;;;;;5014981;28;20434;-74
2022/02/11 07:17:49;;;;;;;2.20;2.03;;;2.90;99.90;;;;;;5015071;28;20573;-76
2022/02/11 07:20:15;;;;;;;3.13;1.97;;;3.00;99.90;;;;;;5015208;28;20772;-76
2022/02/11 07:22:41;;;;;;;2.70;2.00;;;3.00;99.90;;;;;;5014874;28;20170;-77
2022/02/11 07:25:09;;;;;;;2.07;1.97;;;3.00;99.90;;;;;;5014648;28;20191;-76
2022/02/11 07:27:35;;;;;;;5.97;2.58;;;3.10;99.90;;;;;;5013336;28;20816;-77
2022/02/11 07:30:01;;;;;;;1.50;1.40;;;3.20;99.90;;;;;;5015159;28;20175;-76
2022/02/11 07:32:27;;;;;;;1.80;1.70;;;3.20;99.90;;;;;;5014734;28;20410;-77
2022/02/11 07:34:53;;;;;;;2.90;2.70;;;3.30;99.90;;;;;;5014456;28;20441;-77
2022/02/11 07:37:20;;;;;;;2.60;2.40;;;3.30;99.90;;;;;;5015357;28;20174;-76
2022/02/11 07:39:49;;;;;;;2.80;2.60;;;3.50;99.90;;;;;;5015022;28;20402;-77
2022/02/11 07:42:15;;;;;;;2.67;2.03;;;3.60;99.90;;;;;;5015011;28;20229;-78
2022/02/11 07:44:40;;;;;;;4.80;2.77;;;3.60;99.90;;;;;;5015305;28;20198;-78
2022/02/11 07:47:06;;;;;;;2.50;2.30;;;3.70;99.90;;;;;;5013823;28;20199;-77
2022/02/11 07:49:35;;;;;;;3.37;3.17;;;3.80;99.90;;;;;;5013582;28;20572;-78
2022/02/11 07:52:02;;;;;;;5.28;3.58;;;3.90;99.90;;;;;;5015049;28;20232;-76
2022/02/11 07:54:27;;;;;;;4.55;3.17;;;4.00;99.90;;;;;;5014143;28;20199;-77
2022/02/11 07:56:54;;;;;;;2.70;2.50;;;4.10;99.90;;;;;;5015322;28;20262;-77
2022/02/11 07:59:19;;;;;;;6.45;2.50;;;4.20;99.90;;;;;;5015040;28;20171;-77
2022/02/11 08:01:45;;;;;;;4.50;3.43;;;4.20;99.90;;;;;;5014638;28;20177;-76
2022/02/11 08:04:11;;;;;;;3.83;3.30;;;4.20;99.90;;;;;;5013900;28;20684;-75
2022/02/11 08:06:37;;;;;;;3.90;2.70;;;4.30;99.90;;;;;;5013594;28;20225;-77
2022/02/11 08:09:03;;;;;;;3.50;2.42;;;4.30;99.90;;;;;;5014767;28;20175;-77
2022/02/11 08:11:29;;;;;;;3.20;2.90;;;4.40;99.90;;;;;;5014243;28;20163;-76
2022/02/11 08:13:55;;;;;;;4.70;3.67;;;4.50;99.90;;;;;;5012625;28;20277;-76
2022/02/11 08:16:20;;;;;;;2.17;1.97;;;4.70;99.90;;;;;;5012967;28;20417;-78
2022/02/11 08:18:46;;;;;;;2.77;2.50;;;5.20;99.90;;;;;;5014306;28;20493;-75
2022/02/11 08:21:12;;;;;;;2.67;1.83;;;5.70;99.90;;;;;;5014065;28;20177;-75
2022/02/11 08:23:38;;;;;;;1.30;1.30;;;6.30;99.90;;;;;;5013684;28;20408;-75
2022/02/11 08:26:04;;;;;;;2.90;1.90;;;6.80;99.90;;;;;;5014390;28;20416;-75
2022/02/11 08:28:31;;;;;;;1.60;1.50;;;7.10;99.90;;;;;;5014121;28;20198;-75
2022/02/11 08:30:57;;;;;;;3.80;2.30;;;7.50;99.90;;;;;;5014117;28;20229;-74
2022/02/11 08:33:24;;;;;;;1.15;1.05;;;7.60;99.90;;;;;;5013913;28;20167;-77
2022/02/11 08:35:53;;;;;;;1.95;1.85;;;8.00;99.90;;;;;;5013667;28;20282;-75
2022/02/11 08:38:20;;;;;;;1.33;1.23;;;8.70;99.90;;;;;;5013970;28;20171;-75
2022/02/11 08:40:46;;;;;;;1.40;1.10;;;9.20;99.90;;;;;;5013425;28;20419;-74
2022/02/11 08:43:12;;;;;;;2.60;1.60;;;9.20;99.90;;;;;;5013081;28;20516;-71
2022/02/11 08:45:40;;;;;;;1.27;1.17;;;9.10;99.90;;;;;;5013850;28;20425;-78
2022/02/11 08:48:10;;;;;;;1.33;1.23;;;8.70;99.90;;;;;;5012539;28;20470;-76
2022/02/11 08:50:41;;;;;;;2.03;1.92;;;8.50;99.90;;;;;;5012165;28;20519;-77
2022/02/11 08:53:08;;;;;;;1.50;1.43;;;8.50;99.90;;;;;;5013100;28;20170;-74
2022/02/11 08:55:34;;;;;;;2.17;1.77;;;8.90;99.90;;;;;;5012421;28;20799;-76
2022/02/11 08:58:01;;;;;;;3.60;1.47;;;9.40;99.90;;;;;;5012497;28;20404;-76
2022/02/11 09:00:30;;;;;;;3.07;2.00;;;9.60;99.90;;;;;;5013272;28;20452;-76
2022/02/11 09:02:56;;;;;;;1.70;1.60;;;10.40;99.90;;;;;;5013207;28;20962;-76
2022/02/11 09:05:24;;;;;;;2.00;1.90;;;11.10;99.70;;;;;;5013243;28;20470;-77
2022/02/11 09:07:58;;;;;;;3.00;1.60;;;11.90;97.90;;;;;;5013522;28;20454;-78
2022/02/11 09:10:26;;;;;;;2.00;1.90;;;12.90;96.40;;;;;;5013193;28;20418;-79
2022/02/11 09:12:52;;;;;;;2.50;1.60;;;13.50;93.90;;;;;;5012736;28;20414;-76
2022/02/11 09:15:19;;;;;;;1.80;1.50;;;14.00;93.00;;;;;;5012759;28;20430;-77
2022/02/11 09:17:45;;;;;;;1.70;1.60;;;14.50;91.50;;;;;;5013626;28;20425;-77
2022/02/11 09:20:11;;;;;;;1.80;1.70;;;15.10;91.70;;;;;;5017131;28;20829;-76
2022/02/11 09:22:37;;;;;;;2.10;1.83;;;15.60;88.80;;;;;;5016000;28;20440;-76
2022/02/11 09:25:04;;;;;;;2.10;1.30;;;16.20;87.00;;;;;;5016910;28;20520;-76
2022/02/11 09:27:30;;;;;;;4.90;1.77;;;16.50;86.00;;;;;;5016503;28;20465;-76
2022/02/11 09:29:55;;;;;;;2.23;1.67;;;16.70;83.00;;;;;;5015480;28;20455;-78
2022/02/11 09:32:21;;;;;;;2.07;1.20;;;16.80;81.60;;;;;;5015410;28;20250;-76
2022/02/11 09:34:47;;;;;;;1.27;1.20;;;16.80;82.70;;;;;;5015572;28;20187;-77
2022/02/11 09:37:12;;;;;;;1.53;1.30;;;16.90;79.70;;;;;;5016025;28;20544;-76
2022/02/11 09:39:38;;;;;;;1.50;1.40;;;16.70;79.20;;;;;;5015982;28;20262;-77
2022/02/11 09:42:04;;;;;;;1.23;1.23;;;16.60;77.90;;;;;;5016240;28;20221;-76
2022/02/11 09:44:32;;;;;;;2.00;1.80;;;16.80;79.10;;;;;;5016376;28;20203;-75
2022/02/11 09:46:58;;;;;;;1.57;1.50;;;17.10;79.50;;;;;;5016682;28;20440;-76
2022/02/11 09:49:24;;;;;;;1.80;1.57;;;16.90;76.00;;;;;;5016987;28;20969;-76
2022/02/11 09:51:54;;;;;;;1.20;1.10;;;16.30;76.50;;;;;;5017060;28;20441;-75
2022/02/11 09:54:21;;;;;;;1.30;1.30;;;15.50;76.50;;;;;;5021052;28;20522;-77
2022/02/11 09:56:51;;;;;;;1.00;1.00;;;14.70;78.00;;;;;;5019348;28;20760;-77
2022/02/11 09:59:18;;;;;;;1.30;1.20;;;14.40;78.60;;;;;;5024816;28;20421;-78
2022/02/11 10:01:45;;;;;;;3.90;1.07;;;13.80;79.10;;;;;;5020971;28;20421;-76
2022/02/11 10:04:17;;;;;;;1.80;1.10;;;13.30;82.50;;;;;;5022879;28;20461;-75
2022/02/11 10:06:48;;;;;;;1.17;1.17;;;12.70;83.30;;;;;;5019955;28;20511;-75
2022/02/11 10:09:22;;;;;;;1.53;1.40;;;12.50;84.00;;;;;;5020739;28;20406;-75
2022/02/11 10:11:48;;;;;;;1.20;1.20;;;12.20;86.30;;;;;;5016910;28;20735;-76
2022/02/11 10:14:26;;;;;;;1.47;1.37;;;11.60;86.20;;;;;;5015825;28;20435;-78
2022/02/11 10:16:58;;;;;;;3.03;1.70;;;11.20;86.70;;;;;;5016280;28;20412;-77
2022/02/11 10:19:44;;;;;;;2.77;1.50;;;10.60;90.30;;;;;;5016097;28;20950;-76
2022/02/11 10:22:19;;;;;;;2.10;1.60;;;10.80;90.90;;;;;;5016158;28;20416;-76
2022/02/11 10:24:46;;;;;;;5.70;2.37;;;11.30;91.00;;;;;;5014847;28;20520;-75
2022/02/11 10:27:19;;;;;;;2.43;1.30;;;11.60;90.70;;;;;;5014815;28;20556;-76
2022/02/11 10:29:46;;;;;;;1.00;1.00;;;11.40;90.10;;;;;;5014051;28;20406;-75
2022/02/11 10:32:11;;;;;;;0.93;0.93;;;10.90;90.10;;;;;;5014336;28;20410;-76
2022/02/11 10:34:40;;;;;;;2.40;1.37;;;10.40;90.70;;;;;;5014138;28;20443;-75
2022/02/11 10:37:08;;;;;;;2.77;1.27;;;10.10;91.20;;;;;;5014509;28;20184;-72
2022/02/11 10:39:37;;;;;;;2.77;1.70;;;9.60;92.60;;;;;;5014607;28;20415;-73
2022/02/11 10:42:10;;;;;;;1.50;1.40;;;9.30;92.90;;;;;;5014474;28;20420;-74
2022/02/11 10:44:41;;;;;;;3.90;1.70;;;9.10;94.10;;;;;;5012701;28;20446;-72
2022/02/11 10:47:11;;;;;;;1.70;1.05;;;8.80;94.90;;;;;;5014403;28;20505;-75
2022/02/11 10:49:42;;;;;;;3.30;1.48;;;8.60;95.50;;;;;;5014845;28;20179;-71
2022/02/11 10:52:12;;;;;;;1.52;1.42;;;8.50;95.80;;;;;;5015777;28;20182;-78
2022/02/11 10:54:39;;;;;;;1.52;1.42;;;8.40;95.80;;;;;;5016342;28;20211;-77
2022/02/11 10:57:09;;;;;;;1.67;1.50;;;8.50;96.30;;;;;;5016115;28;20229;-76
2022/02/11 10:59:39;;;;;;;1.63;1.33;;;8.60;96.70;;;;;;5016998;28;20692;-76
2022/02/11 11:02:15;;;;;;;2.35;1.40;;;8.70;96.60;;;;;;5015661;28;20536;-75
2022/02/11 11:04:49;;;;;;;1.60;1.20;;;8.80;96.40;;;;;;5014679;28;20591;-75
2022/02/11 11:07:26;;;;;;;3.50;1.33;;;8.70;96.10;;;;;;5015402;28;20217;-75
2022/02/11 11:09:56;;;;;;;2.03;1.75;;;8.60;96.40;;;;;;5015291;28;20167;-73
2022/02/11 11:12:31;;;;;;;2.78;1.23;;;8.40;96.80;;;;;;5015420;28;20502;-72
2022/02/11 11:15:01;;;;;;;1.40;1.30;;;8.20;96.50;;;;;;5014912;28;20194;-73
2022/02/11 11:17:30;;;;;;;1.70;1.60;;;8.10;96.40;;;;;;5015137;28;20179;-76
2022/02/11 11:19:58;;;;;;;1.75;1.65;;;8.00;96.40;;;;;;5015323;28;20609;-74
2022/02/11 11:22:34;;;;;;;1.73;1.63;;;7.90;96.70;;;;;;5014856;28;20180;-74
2022/02/11 11:25:03;;;;;;;1.80;1.52;;;7.90;96.90;;;;;;5016434;28;20549;-74
2022/02/11 11:27:52;;;;;;;1.60;1.20;;;7.90;97.30;;;;;;5019919;28;20199;-76
2022/02/11 11:30:36;;;;;;;4.22;1.92;;;7.90;97.30;;;;;;5014643;28;20173;-75
2022/02/11 11:33:05;;;;;;;1.35;1.35;;;7.80;97.70;;;;;;5014356;28;20189;-72
2022/02/11 11:35:36;;;;;;;1.60;1.50;;;7.90;97.70;;;;;;5014595;28;20518;-74
2022/02/11 11:38:16;;;;;;;1.52;1.40;;;7.90;97.70;;;;;;5013793;28;20182;-71
2022/02/11 11:41:17;;;;;;;2.13;1.63;;;7.90;98.10;;;;;;5014507;28;20170;-74
2022/02/11 11:43:53;;;;;;;2.00;1.90;;;7.90;98.30;;;;;;5014351;28;20580;-74
2022/02/11 11:46:19;;;;;;;1.58;1.50;;;7.80;97.90;;;;;;5014562;28;20558;-73
2022/02/11 11:49:12;;;;;;;1.25;1.20;;;7.90;98.10;;;;;;5014507;28;20571;-72
2022/02/11 11:51:38;;;;;;;0.75;0.70;;;7.70;98.00;;;;;;5014514;28;20182;-74
2022/02/11 11:54:16;;;;;;;2.40;1.00;;;7.60;97.90;;;;;;5014051;28;20596;-75
2022/02/11 11:56:59;;;;;;;2.67;1.65;;;7.60;97.60;;;;;;5014216;28;20171;-74
2022/02/11 11:59:37;;;;;;;0.68;0.68;;;7.70;97.60;;;;;;5014414;28;20213;-74
2022/02/11 12:02:16;;;;;;;0.73;0.73;;;7.70;97.20;;;;;;5014021;28;20289;-75
2022/02/11 12:04:56;;;;;;;2.13;1.13;;;7.80;97.40;;;;;;5110486;27;20943;-71
2022/02/11 12:07:30;;;;;;;1.40;1.30;;;7.80;96.90;;;;;;5110865;28;20244;-71
2022/02/11 12:09:58;;;;;;;1.90;1.50;;;7.90;96.60;;;;;;5110927;28;20633;-72
2022/02/11 12:12:29;;;;;;;1.05;1.05;;;7.90;96.70;;;;;;5111004;28;20163;-72
2022/02/11 12:14:57;;;;;;;1.60;1.50;;;7.90;96.90;;;;;;5109050;28;20516;-72
2022/02/11 12:17:23;;;;;;;0.90;0.90;;;7.90;96.60;;;;;;5109455;28;20170;-72
2022/02/11 12:19:52;;;;;;;3.22;2.28;;;7.90;95.80;;;;;;5110834;28;20174;-74
2022/02/11 12:22:19;;;;;;;0.73;0.70;;;7.90;95.70;;;;;;5110828;28;20269;-76
2022/02/11 12:27:44;;;;;;;4.65;1.15;;;8.00;95.60;;;;;;5111015;28;20205;-77
2022/02/11 12:30:15;;;;;;;6.68;1.27;;;7.90;96.10;;;;;;5110127;28;20156;-75
2022/02/11 12:32:55;;;;;;;1.90;1.00;;;7.90;96.00;;;;;;5109099;28;20209;-73
2022/02/11 12:35:23;;;;;;;1.60;1.50;;;7.80;96.80;;;;;;5109503;28;20277;-75
2022/02/11 12:37:49;;;;;;;1.05;0.95;;;7.80;96.70;;;;;;5110885;28;20199;-74
2022/02/11 12:40:25;;;;;;;3.45;1.52;;;7.80;96.90;;;;;;5110000;28;20176;-74
2022/02/11 12:43:05;;;;;;;1.13;1.13;;;7.80;96.40;;;;;;5110534;28;20191;-72
2022/02/11 12:45:36;;;;;;;3.75;1.63;;;7.80;96.30;;;;;;5110551;28;20231;-73
2022/02/11 12:48:05;;;;;;;1.20;1.20;;;7.80;96.00;;;;;;5110168;28;20194;-71
2022/02/11 12:50:33;;;;;;;0.98;0.93;;;7.80;95.80;;;;;;5108771;28;20653;-73
2022/02/11 12:53:01;;;;;;;1.77;1.40;;;7.80;95.80;;;;;;5109950;28;20418;-72
2022/02/11 12:55:27;;;;;;;1.20;1.10;;;7.70;95.80;;;;;;5110185;28;20590;-74
2022/02/11 12:57:57;;;;;;;1.30;1.20;;;7.70;95.80;;;;;;5109946;28;20170;-74
2022/02/11 13:00:25;;;;;;;1.52;1.25;;;7.80;96.20;;;;;;5109940;28;20848;-75
2022/02/11 13:02:56;;;;;;;1.30;1.20;;;7.70;96.30;;;;;;5109511;28;20257;-74
2022/02/11 13:05:24;;;;;;;1.50;1.15;;;7.70;96.50;;;;;;5110018;28;20187;-71
2022/02/11 13:07:51;;;;;;;3.03;1.35;;;7.80;96.00;;;;;;5109636;28;20254;-70
2022/02/11 13:10:22;;;;;;;1.00;1.00;;;7.70;96.50;;;;;;5109730;28;20190;-72
2022/02/11 13:12:50;;;;;;;1.35;1.27;;;7.80;95.80;;;;;;5108272;28;20525;-72
2022/02/11 13:15:17;;;;;;;1.38;1.33;;;7.70;96.10;;;;;;5101178;28;20673;-76
2022/02/11 13:17:44;;;;;;;0.98;0.95;;;7.80;96.70;;;;;;5096144;28;20220;-70
2022/02/11 13:20:18;;;;;;;0.85;0.82;;;7.80;96.10;;;;;;5096160;28;20174;-74
2022/02/11 13:22:45;;;;;;;0.70;0.70;;;7.80;96.50;;;;;;5094321;28;20226;-73
2022/02/11 13:25:14;;;;;;;0.85;0.85;;;7.80;96.40;;;;;;5096102;28;20607;-77
2022/02/11 13:27:47;;;;;;;2.13;1.20;;;7.80;96.40;;;;;;5096743;28;20184;-78
2022/02/11 13:30:16;;;;;;;3.08;1.60;;;7.70;96.20;;;;;;5094584;28;20164;-72
2022/02/11 13:32:42;;;;;;;1.75;1.15;;;7.60;96.50;;;;;;5095883;28;20249;-73
2022/02/11 13:35:09;;;;;;;1.10;1.10;;;7.50;96.70;;;;;;5095791;28;20233;-74
2022/02/11 13:37:46;;;;;;;1.45;1.20;;;7.50;96.70;;;;;;5096035;28;20171;-73
2022/02/11 13:40:24;;;;;;;2.35;1.50;;;7.50;96.40;;;;;;5095230;28;20163;-73
2022/02/11 13:43:05;;;;;;;1.85;1.27;;;7.60;96.80;;;;;;5095459;28;20196;-71
2022/02/11 13:45:50;;;;;;;1.02;1.00;;;7.80;96.40;;;;;;5095639;28;20223;-71
2022/02/11 13:48:16;;;;;;;1.70;1.10;;;7.80;96.40;;;;;;5096180;28;20164;-73
2022/02/11 13:51:05;;;;;;;2.05;1.95;;;7.90;96.20;;;;;;5096082;28;20254;-74
2022/02/11 13:53:49;;;;;;;2.00;1.33;;;7.90;96.10;;;;;;5095091;28;20180;-74
2022/02/11 13:56:22;;;;;;;1.30;1.30;;;8.00;96.10;;;;;;5095285;28;20171;-74
2022/02/11 13:59:08;;;;;;;6.22;1.70;;;8.10;96.40;;;;;;5094644;28;20214;-71
2022/02/11 14:01:39;;;;;;;1.85;0.93;;;8.10;96.50;;;;;;5093692;28;20164;-72
2022/02/11 14:04:07;;;;;;;0.88;0.85;;;8.10;95.90;;;;;;5094349;28;20744;-75
2022/02/11 14:06:36;;;;;;;0.90;0.90;;;8.10;95.80;;;;;;5094176;28;20172;-73
2022/02/11 14:09:07;;;;;;;1.42;1.15;;;8.20;95.90;;;;;;5094031;28;20183;-73
2022/02/11 14:11:38;;;;;;;1.50;1.40;;;8.30;95.40;;;;;;5093892;28;20217;-70
2022/02/11 14:14:12;;;;;;;1.05;1.05;;;8.40;95.00;;;;;;5095162;28;20586;-75
2022/02/11 14:16:38;;;;;;;0.85;0.80;;;8.50;95.40;;;;;;5097254;28;20663;-74
2022/02/11 14:19:04;;;;;;;1.38;1.05;;;8.60;94.80;;;;;;5097256;28;20180;-75
2022/02/11 14:21:30;;;;;;;1.20;1.20;;;8.70;95.00;;;;;;5095902;28;20172;-74
2022/02/11 14:23:56;;;;;;;2.05;1.02;;;8.60;95.10;;;;;;5098200;28;20207;-74
2022/02/11 14:26:22;;;;;;;1.13;1.03;;;8.70;94.90;;;;;;5096374;28;20164;-72
2022/02/11 14:28:47;;;;;;;1.87;1.03;;;8.60;94.60;;;;;;5097599;28;20165;-76
2022/02/11 14:31:13;;;;;;;0.80;0.80;;;8.50;93.60;;;;;;5097967;28;20168;-73
2022/02/11 14:33:39;;;;;;;1.20;1.10;;;8.40;93.30;;;;;;5095180;28;20172;-72
2022/02/11 14:36:05;;;;;;;1.60;0.93;;;8.30;93.00;;;;;;5096383;28;20229;-71
2022/02/11 14:38:30;;;;;;;1.27;1.20;;;8.20;93.50;;;;;;5097618;28;20175;-73
2022/02/11 14:43:41;;;;;;;1.15;1.05;;;8.10;94.20;;;;;;5095683;28;20214;-74
2022/02/11 14:46:07;;;;;;;0.80;0.80;;;8.00;94.10;;;;;;5095912;28;20160;-74
2022/02/11 14:48:34;;;;;;;2.22;1.08;;;7.90;94.30;;;;;;5096541;28;20199;-73
2022/02/11 14:51:00;;;;;;;1.30;1.30;;;7.80;93.80;;;;;;5098944;28;20629;-72
2022/02/11 14:53:26;;;;;;;1.40;1.30;;;7.60;93.70;;;;;;5096761;28;20168;-76
2022/02/11 14:55:52;;;;;;;2.63;1.43;;;7.50;94.00;;;;;;5097271;28;20188;-74
2022/02/11 14:58:17;;;;;;;1.50;1.43;;;7.50;94.60;;;;;;5094781;28;20206;-74
2022/02/11 15:00:43;;;;;;;1.27;1.27;;;7.50;95.30;;;;;;5095322;28;20179;-75
2022/02/11 15:03:09;;;;;;;1.30;1.20;;;7.60;95.40;;;;;;5094136;28;20200;-73
2022/02/11 15:05:34;;;;;;;1.73;1.30;;;7.50;95.50;;;;;;5095549;28;20194;-72
2022/02/11 15:08:00;;;;;;;1.63;1.00;;;7.40;95.10;;;;;;5094338;28;20452;-71
2022/02/11 15:10:26;;;;;;;4.83;2.00;;;7.30;94.70;;;;;;5094421;28;20920;-73
2022/02/11 15:12:52;;;;;;;1.70;1.60;;;7.30;95.00;;;;;;5094076;28;20167;-72
2022/02/11 15:15:18;;;;;;;2.70;1.10;;;7.20;94.70;;;;;;5093210;28;20198;-73
2022/02/11 15:17:45;;;;;;;0.87;0.87;;;7.10;94.30;;;;;;5094925;28;20912;-74
2022/02/11 15:20:11;;;;;;;0.82;0.82;;;7.00;94.50;;;;;;5095107;28;20409;-74
2022/02/11 15:22:37;;;;;;;3.10;0.77;;;7.00;94.90;;;;;;5094822;28;20255;-73
2022/02/11 15:25:03;;;;;;;3.80;1.37;;;6.90;94.60;;;;;;5094524;28;20257;-73
2022/02/11 15:27:29;;;;;;;1.85;1.27;;;6.90;94.60;;;;;;5093393;28;20786;-73
2022/02/11 15:29:56;;;;;;;1.70;1.00;;;6.80;94.10;;;;;;5094850;28;20167;-72
2022/02/11 15:32:22;;;;;;;1.17;1.08;;;6.80;94.30;;;;;;5093959;28;20170;-73
2022/02/11 15:34:47;;;;;;;1.07;1.07;;;6.80;94.40;;;;;;5093599;28;20201;-73
2022/02/11 15:37:16;;;;;;;0.83;0.83;;;6.80;94.70;;;;;;5094180;28;20507;-76
2022/02/11 15:39:42;;;;;;;1.77;1.05;;;6.80;94.80;;;;;;5094168;28;20175;-74
2022/02/11 15:42:07;;;;;;;1.17;1.13;;;6.80;95.10;;;;;;5092507;28;20202;-72
2022/02/11 15:44:33;;;;;;;0.97;0.97;;;6.80;95.10;;;;;;5093191;28;20236;-74
2022/02/11 15:46:59;;;;;;;3.70;1.40;;;6.70;95.40;;;;;;5094167;28;20405;-77
2022/02/11 15:49:24;;;;;;;1.30;1.20;;;6.70;95.50;;;;;;5094284;28;20181;-73
2022/02/11 15:51:50;;;;;;;6.60;1.13;;;6.70;95.80;;;;;;5094039;28;20661;-76
2022/02/11 15:54:16;;;;;;;4.73;1.20;;;6.70;96.00;;;;;;5093300;28;20187;-73
2022/02/11 15:56:42;;;;;;;2.20;1.50;;;6.60;96.10;;;;;;5093938;28;20168;-74
2022/02/11 15:59:07;;;;;;;3.20;1.60;;;6.60;96.50;;;;;;5093623;28;20175;-72
2022/02/11 16:01:33;;;;;;;2.90;1.07;;;6.50;96.50;;;;;;5093573;28;20320;-73
2022/02/11 16:04:00;;;;;;;1.60;1.50;;;6.50;96.70;;;;;;5093178;28;20210;-73
2022/02/11 16:06:26;;;;;;;1.02;1.00;;;6.40;97.00;;;;;;5093551;28;20160;-72
2022/02/11 16:08:52;;;;;;;1.23;1.13;;;6.50;97.20;;;;;;5092350;28;20209;-75
2022/02/11 16:11:17;;;;;;;1.53;1.13;;;6.40;97.60;;;;;;5092480;28;20169;-73
2022/02/11 16:13:43;;;;;;;1.57;1.40;;;6.40;97.60;;;;;;5092893;28;20175;-73
2022/02/11 16:16:09;;;;;;;1.70;1.37;;;6.30;97.80;;;;;;5093679;28;20593;-73
2022/02/11 16:18:35;;;;;;;1.07;0.97;;;6.30;97.90;;;;;;5093310;28;20172;-73
2022/02/11 16:21:01;;;;;;;3.22;1.10;;;6.30;98.40;;;;;;5093163;28;20696;-75
2022/02/11 16:23:27;;;;;;;1.30;1.30;;;6.30;98.60;;;;;;5092936;28;20210;-75
2022/02/11 16:25:54;;;;;;;0.90;0.75;;;6.20;98.50;;;;;;5093102;28;20188;-75
2022/02/11 16:28:20;;;;;;;4.43;1.35;;;6.30;98.80;;;;;;5093426;28;20589;-74
2022/02/11 16:30:47;;;;;;;1.45;1.33;;;6.20;99.00;;;;;;5092857;28;20182;-73
2022/02/11 16:33:13;;;;;;;2.00;1.50;;;6.20;99.40;;;;;;5092823;28;20177;-73
2022/02/11 16:35:42;;;;;;;4.22;1.35;;;6.20;99.90;;;;;;5093637;28;20192;-74
2022/02/11 16:38:10;;;;;;;1.38;1.30;;;6.00;99.90;;;;;;5093134;28;20171;-75
2022/02/11 16:40:36;;;;;;;2.40;2.20;;;5.50;99.90;;;;;;5093471;28;20172;-74
2022/02/11 16:43:02;;;;;;;4.85;2.10;;;5.20;99.90;;;;;;5092609;28;20557;-74